Terminal Aerodrome Forecast
Issued by NWS Blacksburg, VA

Current Version | Previous Version | Graphics & Text | Print | Product List | Glossary On
Versions: 1 2 3 4 5 6 7 8 9 10 11 12 13 14 15 16 17 18 19 20 21 22 23 24 25 26 27 28 29 30 31 32 33 34 35 36 37
000
FTUS41 KRNK 271131
TAFBLF
TAF
KBLF 271131Z 2712/2812 VRB03KT P6SM SKC
     FM271500 36005KT P6SM SCT250
     FM272200 33004KT P6SM BKN250
     FM280500 28003KT P6SM SCT120=

USA.gov is the U.S. government's official web portal to all federal, state and local government web resources and services.